Cardak, Turkey

12:05 PM EEST on September 19, 2014 (GMT +0300)
Cardak Air Base | Change Station
CLOSE
Current Station
Airport
Location: Cardak,
Elevation: 2785 ft
Nearby Weather Stations

Elev 2785 ft 37.79 °N, 29.70 °E | Updated 15 minutes ago

Mostly Cloudy
Mostly Cloudy
68 °F
Feels Like 68 °F
N
2
Wind Variable Wind from Variable

Today
High -- | Low -- °F
--% Chance of Precip.
Yesterday
High -- | Low -- °F
Precip. -- in
6:46 AM 7:03 PM
Waning Crescent, 20% visible
Pressure 30.12 in
Visibility 6.2 miles
Clouds Scattered Clouds 3500 ft
Mostly Cloudy 10000 ft
Dew Point 52 °F
Humidity 56%
Rainfall 0.00 in
Snow Depth Not available.
UV 4 out of 12
Pollen Not available.
Air Quality Not available.
Flu Activity Not available.
METAR LTAY 190850Z VRB02KT 9999 SCT035 BKN100 20/11 Q1020

More Conditions Fewer Conditions

Pressure 30.12 in
Visibility 6.2 miles
Clouds Scattered Clouds 3500 ft
Mostly Cloudy 10000 ft
Dew Point 52 °F
Humidity 56%
Rainfall 0.00 in
Snow Depth Not available.
UV 4 out of 12
Pollen Not available.
Air Quality Not available.
Flu Activity Not available.
METAR LTAY 190850Z VRB02KT 9999 SCT035 BKN100 20/11 Q1020

More Conditions Fewer Conditions

10-Day Weather Forecast

Almanac

Astronomy

Sep. 19, 2014 Rise Set
Actual Time 6:46 AM EEST 7:03 PM EEST
Civil Twilight 6:19 AM EEST 7:29 PM EEST
Nautical Twilight 5:49 AM EEST 8:00 PM EEST
Astronomical Twilight 5:17 AM EEST 8:31 PM EEST
Moon 2:17 AM EEST 4:16 PM EEST
Length of Visible Light 13h 09m
Length of Day
12h 17m
Tomorrow will be 2m 24s shorter.
Waning Crescent, 20% of the Moon is Illuminated
Today
Waning Crescent
Sep 24
New
Oct 1
First Quarter
Oct 8
Full
Oct 15
Last Quarter

Yesterday's Extremes

Country Highs Country Lows

Community

WunderPhotos

Upload Photos

1,754,583 photos uploaded!

Nearby

Snow Depth

Not available.

Earthquake Activity

City Distance Mag. Time & Date
No recent earthquake activity has been reported nearby.
Minimum magnitude displayed is 2.5.

Coastal Water Temperatures

Place Temperature
No Stations Reporting

Nearby Weather Stations